createdAt,value
2023-12-28T00:00:04.074Z,1002.15
2023-12-28T00:03:11.885Z,1001.90
2023-12-28T00:06:20.966Z,1001.87
2023-12-28T00:09:29.478Z,1001.68
2023-12-28T00:12:36.637Z,1001.46
2023-12-28T00:15:44.758Z,1001.33
2023-12-28T00:18:53.987Z,1001.09
2023-12-28T00:22:01.628Z,1001.18
2023-12-28T00:25:09.124Z,1001.43
2023-12-28T00:28:18.085Z,1001.54
2023-12-28T00:31:25.671Z,1001.55
2023-12-28T00:34:34.134Z,1001.50
2023-12-28T00:37:42.795Z,1001.56
2023-12-28T00:40:49.867Z,1001.50
2023-12-28T00:43:57.385Z,1001.58
2023-12-28T00:47:06.379Z,1001.63
2023-12-28T00:50:14.456Z,1001.62
2023-12-28T00:53:22.296Z,1001.66
2023-12-28T00:56:29.469Z,1001.87
2023-12-28T00:59:40.241Z,1001.84
2023-12-28T01:02:48.113Z,1001.91
2023-12-28T01:05:56.612Z,1001.90
2023-12-28T01:09:05.919Z,1002.17
2023-12-28T01:12:16.127Z,1002.20
2023-12-28T01:15:24.031Z,1002.25
2023-12-28T01:18:32.985Z,1002.26
2023-12-28T01:21:40.944Z,1002.24
2023-12-28T01:24:47.899Z,1002.25
2023-12-28T01:27:57.362Z,1002.37
2023-12-28T01:31:06.015Z,1002.40
2023-12-28T01:34:13.548Z,1002.35
2023-12-28T01:37:21.992Z,1002.20
2023-12-28T01:40:31.533Z,1002.35
2023-12-28T01:43:38.918Z,1002.38
2023-12-28T01:46:47.013Z,1002.41
2023-12-28T01:49:56.582Z,1002.52
2023-12-28T01:53:03.939Z,1002.46
2023-12-28T01:56:11.503Z,1002.46
2023-12-28T01:59:19.752Z,1002.54
2023-12-28T02:02:27.412Z,1002.60
2023-12-28T02:05:34.555Z,1002.49
2023-12-28T02:08:43.291Z,1002.39
2023-12-28T02:11:50.927Z,1002.65
2023-12-28T02:14:58.626Z,1002.52
2023-12-28T02:18:06.881Z,1002.47
2023-12-28T02:21:15.397Z,1002.45
2023-12-28T02:24:23.092Z,1002.52
2023-12-28T02:27:30.605Z,1002.52
2023-12-28T02:30:40.110Z,1002.50
2023-12-28T02:33:47.355Z,1002.62
2023-12-28T02:36:55.098Z,1002.72
2023-12-28T02:40:03.531Z,1002.64
2023-12-28T02:43:11.087Z,1002.67
2023-12-28T02:46:18.493Z,1002.65
2023-12-28T02:49:27.731Z,1002.54
2023-12-28T02:52:34.764Z,1002.65
2023-12-28T02:55:42.400Z,1002.58
2023-12-28T02:58:50.992Z,1002.70
2023-12-28T03:01:58.511Z,1002.77
2023-12-28T03:05:05.871Z,1002.76
2023-12-28T03:08:14.236Z,1002.84
2023-12-28T03:11:23.025Z,1002.88
2023-12-28T03:14:31.907Z,1002.86
2023-12-28T03:17:40.339Z,1002.77
2023-12-28T03:20:49.076Z,1002.75
2023-12-28T03:23:56.993Z,1002.75
2023-12-28T03:27:04.953Z,1002.55
2023-12-28T03:30:13.603Z,1002.67
2023-12-28T03:33:21.197Z,1002.78
2023-12-28T03:36:29.291Z,1002.87
2023-12-28T03:39:37.790Z,1002.93
2023-12-28T03:42:44.465Z,1002.83
2023-12-28T03:45:52.101Z,1002.69
2023-12-28T03:48:59.991Z,1002.74
2023-12-28T03:52:09.205Z,1002.77
2023-12-28T03:55:16.199Z,1002.91
2023-12-28T03:58:24.271Z,1002.91
2023-12-28T04:01:32.530Z,1003.07
2023-12-28T04:04:41.545Z,1002.97
2023-12-28T04:07:49.162Z,1002.94
2023-12-28T04:10:58.147Z,1002.96
2023-12-28T04:14:06.692Z,1002.95
2023-12-28T04:17:14.374Z,1003.05
2023-12-28T04:20:22.593Z,1003.01
2023-12-28T04:23:30.812Z,1003.16
2023-12-28T04:26:38.281Z,1003.10
2023-12-28T04:29:46.231Z,1003.13
2023-12-28T04:32:55.542Z,1003.09
2023-12-28T04:36:03.455Z,1003.14
2023-12-28T04:39:10.481Z,1003.09
2023-12-28T04:42:20.054Z,1003.09
2023-12-28T04:45:27.481Z,1003.11
2023-12-28T04:48:35.104Z,1003.08
2023-12-28T04:51:44.931Z,1003.24
2023-12-28T04:54:52.932Z,1003.20
2023-12-28T04:58:00.774Z,1003.16
2023-12-28T05:01:09.959Z,1003.23
2023-12-28T05:04:18.319Z,1003.28
2023-12-28T05:07:26.289Z,1003.14
2023-12-28T05:10:35.527Z,1003.12
2023-12-28T05:13:43.359Z,1003.10
2023-12-28T05:16:50.634Z,1003.11
2023-12-28T05:19:58.256Z,1003.20
2023-12-28T05:23:06.511Z,1003.30
2023-12-28T05:26:14.623Z,1003.28
2023-12-28T05:29:21.953Z,1003.30
2023-12-28T05:32:31.091Z,1003.28
2023-12-28T05:35:39.307Z,1003.31
2023-12-28T05:38:46.580Z,1003.37
2023-12-28T05:41:55.361Z,1003.34
2023-12-28T05:45:03.120Z,1003.36
2023-12-28T05:48:11.471Z,1003.46
2023-12-28T05:51:20.103Z,1003.45
2023-12-28T05:54:28.173Z,1003.51
2023-12-28T05:57:35.863Z,1003.54
2023-12-28T06:00:43.313Z,1003.52
2023-12-28T06:03:52.438Z,1003.47
2023-12-28T06:06:59.778Z,1003.46
2023-12-28T06:10:07.391Z,1003.40
2023-12-28T06:13:16.263Z,1003.35
2023-12-28T06:16:23.755Z,1003.47
2023-12-28T06:19:30.777Z,1003.52
2023-12-28T06:22:40.217Z,1003.49
2023-12-28T06:25:47.564Z,1003.52
2023-12-28T06:28:54.894Z,1003.59
2023-12-28T06:32:03.996Z,1003.56
2023-12-28T06:35:11.249Z,1003.44
2023-12-28T06:38:18.922Z,1003.60
2023-12-28T06:41:26.113Z,1003.55
2023-12-28T06:44:35.140Z,1003.58
2023-12-28T06:47:42.449Z,1003.63
2023-12-28T06:50:50.388Z,1003.51
2023-12-28T06:53:59.108Z,1003.63
2023-12-28T06:57:07.056Z,1003.64
2023-12-28T07:00:14.610Z,1003.72
2023-12-28T07:03:23.537Z,1003.67
2023-12-28T07:06:31.146Z,1003.69
2023-12-28T07:09:38.760Z,1003.67
2023-12-28T07:12:47.864Z,1003.80
2023-12-28T07:15:58.659Z,1003.75
2023-12-28T07:18:56.315Z,1003.82
2023-12-28T07:22:04.066Z,1003.96
2023-12-28T07:25:13.091Z,1004.03
2023-12-28T07:28:21.875Z,1003.95
2023-12-28T07:31:29.874Z,1003.94
2023-12-28T07:34:39.797Z,1004.05
2023-12-28T07:37:47.690Z,1004.04
2023-12-28T07:40:55.089Z,1004.15
2023-12-28T07:44:04.206Z,1004.09
2023-12-28T07:47:11.778Z,1004.17
2023-12-28T07:50:19.295Z,1004.05
2023-12-28T07:53:28.204Z,1004.13
2023-12-28T07:56:36.380Z,1004.12
2023-12-28T07:59:44.138Z,1004.12
2023-12-28T08:02:52.853Z,1004.22
2023-12-28T08:06:00.927Z,1004.21
2023-12-28T08:09:07.924Z,1004.20
2023-12-28T08:12:15.641Z,1004.20
2023-12-28T08:15:24.110Z,1004.20
2023-12-28T08:18:31.926Z,1004.23
2023-12-28T08:21:41.085Z,1004.28
2023-12-28T08:24:50.191Z,1004.36
2023-12-28T08:27:57.734Z,1004.42
2023-12-28T08:31:05.309Z,1004.42
2023-12-28T08:34:14.740Z,1004.45
2023-12-28T08:37:22.359Z,1004.43
2023-12-28T08:40:29.746Z,1004.45
2023-12-28T08:43:39.131Z,1004.32
2023-12-28T08:46:46.346Z,1004.25
2023-12-28T08:49:54.761Z,1004.32
2023-12-28T08:53:02.609Z,1004.37
2023-12-28T08:56:11.629Z,1004.39
2023-12-28T08:59:19.984Z,1004.39
2023-12-28T09:02:27.382Z,1004.41
2023-12-28T09:05:37.010Z,1004.42
2023-12-28T09:08:44.120Z,1004.44
2023-12-28T09:11:52.557Z,1004.41
2023-12-28T09:15:01.636Z,1004.47
2023-12-28T09:18:09.272Z,1004.48
2023-12-28T09:21:17.165Z,1004.47
2023-12-28T09:24:26.793Z,1004.43
2023-12-28T09:27:35.135Z,1004.29
2023-12-28T09:30:43.765Z,1004.30
2023-12-28T09:33:50.737Z,1004.21
2023-12-28T09:37:00.531Z,1004.29
2023-12-28T09:40:07.875Z,1004.31
2023-12-28T09:43:15.238Z,1004.29
2023-12-28T09:46:24.308Z,1004.38
2023-12-28T09:49:32.355Z,1004.36
2023-12-28T09:52:39.793Z,1004.38
2023-12-28T09:55:49.381Z,1004.29
2023-12-28T09:58:57.726Z,1004.40
2023-12-28T10:02:05.197Z,1004.29
2023-12-28T10:05:13.859Z,1004.23
2023-12-28T10:08:21.304Z,1004.24
2023-12-28T10:11:29.617Z,1004.17
2023-12-28T10:14:38.549Z,1004.22
2023-12-28T10:17:45.832Z,1004.27
2023-12-28T10:20:53.681Z,1004.30
2023-12-28T10:24:01.214Z,1004.27
2023-12-28T10:27:10.227Z,1004.24
2023-12-28T10:30:18.441Z,1004.26
2023-12-28T10:33:26.785Z,1004.26
2023-12-28T10:36:36.528Z,1004.15
2023-12-28T10:39:44.122Z,1004.11
2023-12-28T10:42:52.085Z,1003.96
2023-12-28T10:46:01.651Z,1003.93
2023-12-28T10:49:09.553Z,1003.97
2023-12-28T10:52:16.938Z,1003.81
2023-12-28T10:55:25.782Z,1003.80
2023-12-28T10:58:33.999Z,1003.78
2023-12-28T11:01:41.096Z,1003.80
2023-12-28T11:04:49.035Z,1003.80
2023-12-28T11:07:58.815Z,1003.88
2023-12-28T11:11:06.859Z,1003.93
2023-12-28T11:14:14.270Z,1003.85
2023-12-28T11:17:23.530Z,1003.98
2023-12-28T11:20:31.372Z,1003.94
2023-12-28T11:23:38.916Z,1003.88
2023-12-28T11:26:48.073Z,1003.89
2023-12-28T11:29:55.317Z,1003.93
2023-12-28T11:33:03.496Z,1003.96
2023-12-28T11:36:13.835Z,1003.92
2023-12-28T11:39:21.566Z,1003.93
2023-12-28T11:42:28.605Z,1003.97
2023-12-28T11:45:35.840Z,1003.96
2023-12-28T11:48:45.380Z,1003.89
2023-12-28T11:51:53.122Z,1003.89
2023-12-28T11:55:01.456Z,1003.84
2023-12-28T11:58:11.769Z,1003.76
2023-12-28T12:01:11.756Z,1003.76
2023-12-28T12:04:19.711Z,1003.77
2023-12-28T12:07:29.322Z,1003.71
2023-12-28T12:10:37.266Z,1003.64
2023-12-28T12:13:44.811Z,1003.69
2023-12-28T12:16:55.186Z,1003.58
2023-12-28T12:20:02.281Z,1003.57
2023-12-28T12:23:10.194Z,1003.73
2023-12-28T12:26:18.186Z,1003.69
2023-12-28T12:29:29.473Z,1003.72
2023-12-28T12:32:37.476Z,1003.69
2023-12-28T12:35:45.014Z,1003.63
2023-12-28T12:38:54.591Z,1003.67
2023-12-28T12:42:02.699Z,1003.63
2023-12-28T12:45:10.559Z,1003.63
2023-12-28T12:48:20.564Z,1003.70
2023-12-28T12:51:28.158Z,1003.64
2023-12-28T12:54:35.893Z,1003.65
2023-12-28T12:57:44.727Z,1003.65
2023-12-28T13:00:52.449Z,1003.56
2023-12-28T13:04:00.444Z,1003.49
2023-12-28T13:07:07.899Z,1003.50
2023-12-28T13:10:17.417Z,1003.45
2023-12-28T13:13:24.377Z,1003.49
2023-12-28T13:16:32.662Z,1003.46
2023-12-28T13:19:41.885Z,1003.61
2023-12-28T13:22:50.441Z,1003.59
2023-12-28T13:25:57.797Z,1003.59
2023-12-28T13:29:06.738Z,1003.55
2023-12-28T13:32:14.296Z,1003.53
2023-12-28T13:35:21.351Z,1003.55
2023-12-28T13:38:30.173Z,1003.58
2023-12-28T13:41:38.117Z,1003.49
2023-12-28T13:44:45.893Z,1003.57
2023-12-28T13:47:55.165Z,1003.56
2023-12-28T13:51:03.677Z,1003.62
2023-12-28T13:54:11.202Z,1003.67
2023-12-28T13:57:19.546Z,1003.61
2023-12-28T14:00:28.028Z,1003.60
2023-12-28T14:03:35.427Z,1003.63
2023-12-28T14:06:43.272Z,1003.66
2023-12-28T14:09:52.364Z,1003.68
2023-12-28T14:13:00.352Z,1003.63
2023-12-28T14:16:08.242Z,1003.54
2023-12-28T14:19:17.784Z,1003.60
2023-12-28T14:22:25.681Z,1003.77
2023-12-28T14:25:33.615Z,1003.64
2023-12-28T14:28:43.109Z,1003.63
2023-12-28T14:31:50.166Z,1003.73
2023-12-28T14:34:57.640Z,1003.67
2023-12-28T14:38:04.819Z,1003.67
2023-12-28T14:41:14.312Z,1003.58
2023-12-28T14:44:21.609Z,1003.65
2023-12-28T14:47:29.097Z,1003.65
2023-12-28T14:50:37.748Z,1003.72
2023-12-28T14:53:45.445Z,1003.70
2023-12-28T14:56:55.674Z,1003.60
2023-12-28T14:59:54.214Z,1003.63
2023-12-28T15:03:01.166Z,1003.77
2023-12-28T15:06:08.864Z,1003.73
2023-12-28T15:09:17.941Z,1003.56
2023-12-28T15:12:25.151Z,1003.63
2023-12-28T15:15:32.703Z,1003.63
2023-12-28T15:18:40.664Z,1003.61
2023-12-28T15:21:49.360Z,1003.62
2023-12-28T15:24:58.054Z,1003.62
2023-12-28T15:28:05.716Z,1003.63
2023-12-28T15:31:14.739Z,1003.60
2023-12-28T15:34:22.818Z,1003.57
2023-12-28T15:37:30.059Z,1003.51
2023-12-28T15:40:38.715Z,1003.52
2023-12-28T15:43:46.815Z,1003.45
2023-12-28T15:46:53.710Z,1003.48
2023-12-28T15:50:02.487Z,1003.40
2023-12-28T15:53:09.224Z,1003.44
2023-12-28T15:56:19.635Z,1003.41
2023-12-28T15:59:16.787Z,1003.46
2023-12-28T16:02:25.676Z,1003.38
2023-12-28T16:05:33.151Z,1003.40
2023-12-28T16:08:39.935Z,1003.35
2023-12-28T16:11:48.591Z,1003.31
2023-12-28T16:14:55.985Z,1003.34
2023-12-28T16:18:04.339Z,1003.32
2023-12-28T16:21:13.279Z,1003.39
2023-12-28T16:24:20.968Z,1003.33
2023-12-28T16:27:28.443Z,1003.34
2023-12-28T16:30:37.855Z,1003.29
2023-12-28T16:33:45.399Z,1003.27
2023-12-28T16:36:53.068Z,1003.22
2023-12-28T16:40:02.136Z,1003.29
2023-12-28T16:43:09.663Z,1003.35
2023-12-28T16:46:16.889Z,1003.30
2023-12-28T16:49:24.068Z,1003.27
2023-12-28T16:52:32.328Z,1003.30
2023-12-28T16:55:39.905Z,1003.26
2023-12-28T16:58:47.127Z,1003.23
2023-12-28T17:01:56.246Z,1003.12
2023-12-28T17:05:04.005Z,1003.25
2023-12-28T17:08:11.572Z,1003.22
2023-12-28T17:11:20.108Z,1003.30
2023-12-28T17:14:27.525Z,1003.21
2023-12-28T17:17:35.425Z,1003.16
2023-12-28T17:20:44.046Z,1003.08
2023-12-28T17:23:51.322Z,1003.08
2023-12-28T17:26:58.904Z,1003.05
2023-12-28T17:30:05.929Z,1003.04
2023-12-28T17:33:15.219Z,1003.12
2023-12-28T17:36:22.657Z,1003.13
2023-12-28T17:39:30.197Z,1003.05
2023-12-28T17:42:39.667Z,1003.09
2023-12-28T17:45:46.807Z,1003.02
2023-12-28T17:48:54.077Z,1002.98
2023-12-28T17:52:02.870Z,1003.00
2023-12-28T17:55:10.390Z,1003.11
2023-12-28T17:58:17.364Z,1003.12
2023-12-28T18:01:26.180Z,1003.11
2023-12-28T18:04:33.284Z,1003.09
2023-12-28T18:07:40.882Z,1003.02
2023-12-28T18:10:48.844Z,1002.92
2023-12-28T18:13:58.292Z,1003.02
2023-12-28T18:17:07.870Z,1003.07
2023-12-28T18:20:15.740Z,1003.07
2023-12-28T18:23:24.775Z,1003.08
2023-12-28T18:26:32.066Z,1003.08
2023-12-28T18:29:39.834Z,1003.02
2023-12-28T18:32:48.350Z,1002.99
2023-12-28T18:35:55.342Z,1003.05
2023-12-28T18:39:02.544Z,1003.05
2023-12-28T18:42:03.730Z,1003.02
2023-12-28T18:45:10.405Z,1002.96
2023-12-28T18:48:18.596Z,1003.00
2023-12-28T18:51:26.405Z,1002.98
2023-12-28T18:54:34.586Z,1002.95
2023-12-28T18:57:42.449Z,1002.91
2023-12-28T19:00:50.447Z,1002.93
2023-12-28T19:03:59.509Z,1002.84
2023-12-28T19:07:06.859Z,1002.93
2023-12-28T19:10:14.649Z,1002.92
2023-12-28T19:13:23.749Z,1002.99
2023-12-28T19:16:33.150Z,1003.04
2023-12-28T19:19:40.766Z,1002.97
2023-12-28T19:22:49.378Z,1003.00
2023-12-28T19:25:56.474Z,1003.01
2023-12-28T19:29:03.384Z,1003.01
2023-12-28T19:32:10.270Z,1002.94
2023-12-28T19:35:19.205Z,1003.03
2023-12-28T19:38:26.788Z,1002.91
2023-12-28T19:41:33.505Z,1002.88
2023-12-28T19:44:43.636Z,1002.77
2023-12-28T19:47:50.772Z,1002.82
2023-12-28T19:50:57.664Z,1002.78
2023-12-28T19:54:06.874Z,1002.62
2023-12-28T19:57:14.448Z,1002.65
2023-12-28T20:00:21.826Z,1002.70
2023-12-28T20:03:30.416Z,1002.68
2023-12-28T20:06:38.716Z,1002.64
2023-12-28T20:09:46.199Z,1002.57
2023-12-28T20:12:54.421Z,1002.61
2023-12-28T20:16:01.314Z,1002.61
2023-12-28T20:19:08.401Z,1002.43
2023-12-28T20:22:16.040Z,1002.58
2023-12-28T20:25:16.995Z,1002.44
2023-12-28T20:28:24.094Z,1002.36
2023-12-28T20:31:31.297Z,1002.38
2023-12-28T20:34:41.846Z,1002.29
2023-12-28T20:37:51.539Z,1002.38
2023-12-28T20:40:59.311Z,1002.36
2023-12-28T20:44:07.972Z,1002.40
2023-12-28T20:47:15.401Z,1002.42
2023-12-28T20:50:22.704Z,1002.39
2023-12-28T20:53:31.264Z,1002.47
2023-12-28T20:56:42.000Z,1002.53
2023-12-28T20:59:48.971Z,1002.53
2023-12-28T21:02:56.491Z,1002.51
2023-12-28T21:06:05.404Z,1002.50
2023-12-28T21:09:13.212Z,1002.43
2023-12-28T21:12:20.334Z,1002.47
2023-12-28T21:15:29.314Z,1002.42
2023-12-28T21:18:36.647Z,1002.38
2023-12-28T21:21:44.390Z,1002.36
2023-12-28T21:24:53.703Z,1002.47
2023-12-28T21:28:01.362Z,1002.34
2023-12-28T21:31:08.813Z,1002.31
2023-12-28T21:34:17.462Z,1002.29
2023-12-28T21:37:24.589Z,1002.17
2023-12-28T21:40:32.157Z,1002.21
2023-12-28T21:43:38.917Z,1002.08
2023-12-28T21:46:48.119Z,1001.97
2023-12-28T21:49:56.398Z,1002.07
2023-12-28T21:53:03.803Z,1001.99
2023-12-28T21:56:05.151Z,1002.09
2023-12-28T21:59:12.734Z,1002.11
2023-12-28T22:02:20.753Z,1002.08
2023-12-28T22:05:30.024Z,1001.99
2023-12-28T22:08:37.275Z,1001.90
2023-12-28T22:11:44.388Z,1001.98
2023-12-28T22:14:53.505Z,1001.94
2023-12-28T22:18:01.393Z,1001.91
2023-12-28T22:21:09.081Z,1001.96
2023-12-28T22:24:16.744Z,1001.85
2023-12-28T22:27:24.918Z,1001.86
2023-12-28T22:30:32.722Z,1001.79
2023-12-28T22:33:40.698Z,1001.66
2023-12-28T22:36:48.077Z,1001.62
2023-12-28T22:39:48.868Z,1001.61
2023-12-28T22:42:55.630Z,1001.60
2023-12-28T22:46:02.738Z,1001.48
2023-12-28T22:49:09.910Z,1001.44
2023-12-28T22:52:19.020Z,1001.38
2023-12-28T22:55:26.952Z,1001.31
2023-12-28T22:58:34.102Z,1001.36
2023-12-28T23:01:43.554Z,1001.36
2023-12-28T23:04:55.783Z,1001.31
2023-12-28T23:07:53.408Z,1001.35
2023-12-28T23:11:01.844Z,1001.36
2023-12-28T23:14:09.123Z,1001.32
2023-12-28T23:17:17.269Z,1001.27
2023-12-28T23:20:24.915Z,1001.28
2023-12-28T23:23:33.167Z,1001.28
2023-12-28T23:26:40.586Z,1001.24
2023-12-28T23:29:47.735Z,1001.13
2023-12-28T23:32:56.260Z,1001.13
2023-12-28T23:36:03.804Z,1001.08
2023-12-28T23:39:11.931Z,1001.03
2023-12-28T23:42:20.110Z,1001.03
2023-12-28T23:45:27.789Z,1000.98
2023-12-28T23:48:35.761Z,1000.92
2023-12-28T23:51:43.921Z,1000.77
2023-12-28T23:54:52.456Z,1000.65
2023-12-28T23:58:00.121Z,1000.70
